sensor_id;sensor_type;location;lat;lon;timestamp;P1;durP1;ratioP1;P2;durP2;ratioP2
26951;SDS011;14507;52.418;13.398;2023-05-14T00:00:19;21.38;;;13.10;;
26951;SDS011;14507;52.418;13.398;2023-05-14T00:02:45;17.60;;;12.45;;
26951;SDS011;14507;52.418;13.398;2023-05-14T00:05:11;21.63;;;12.75;;
26951;SDS011;14507;52.418;13.398;2023-05-14T00:07:36;18.65;;;12.55;;
26951;SDS011;14507;52.418;13.398;2023-05-14T00:10:02;20.05;;;12.40;;
26951;SDS011;14507;52.418;13.398;2023-05-14T00:12:28;19.25;;;12.57;;
26951;SDS011;14507;52.418;13.398;2023-05-14T00:14:54;19.15;;;12.20;;
26951;SDS011;14507;52.418;13.398;2023-05-14T00:17:20;20.65;;;12.43;;
26951;SDS011;14507;52.418;13.398;2023-05-14T00:19:46;19.55;;;12.80;;
26951;SDS011;14507;52.418;13.398;2023-05-14T00:22:11;22.42;;;13.07;;
26951;SDS011;14507;52.418;13.398;2023-05-14T00:24:37;19.70;;;13.40;;
26951;SDS011;14507;52.418;13.398;2023-05-14T00:27:03;19.17;;;13.55;;
26951;SDS011;14507;52.418;13.398;2023-05-14T00:29:29;21.27;;;13.70;;
26951;SDS011;14507;52.418;13.398;2023-05-14T00:31:54;20.17;;;13.32;;
26951;SDS011;14507;52.418;13.398;2023-05-14T00:34:20;25.35;;;13.15;;
26951;SDS011;14507;52.418;13.398;2023-05-14T00:36:46;20.30;;;12.88;;
26951;SDS011;14507;52.418;13.398;2023-05-14T00:39:12;22.80;;;12.95;;
26951;SDS011;14507;52.418;13.398;2023-05-14T00:41:37;18.65;;;12.73;;
26951;SDS011;14507;52.418;13.398;2023-05-14T00:44:03;20.83;;;12.68;;
26951;SDS011;14507;52.418;13.398;2023-05-14T00:46:29;19.27;;;12.25;;
26951;SDS011;14507;52.418;13.398;2023-05-14T00:48:55;19.73;;;12.57;;
26951;SDS011;14507;52.418;13.398;2023-05-14T00:51:22;19.60;;;12.27;;
26951;SDS011;14507;52.418;13.398;2023-05-14T00:53:48;18.50;;;12.18;;
26951;SDS011;14507;52.418;13.398;2023-05-14T00:56:14;18.30;;;12.27;;
26951;SDS011;14507;52.418;13.398;2023-05-14T00:58:41;21.42;;;12.48;;
26951;SDS011;14507;52.418;13.398;2023-05-14T01:01:07;18.65;;;11.20;;
26951;SDS011;14507;52.418;13.398;2023-05-14T01:03:33;19.60;;;11.93;;
26951;SDS011;14507;52.418;13.398;2023-05-14T01:06:15;16.35;;;11.05;;
26951;SDS011;14507;52.418;13.398;2023-05-14T01:09:04;19.65;;;11.43;;
26951;SDS011;14507;52.418;13.398;2023-05-14T01:14:39;15.70;;;10.82;;
26951;SDS011;14507;52.418;13.398;2023-05-14T01:17:35;15.40;;;10.13;;
26951;SDS011;14507;52.418;13.398;2023-05-14T01:20:07;14.95;;;10.55;;
26951;SDS011;14507;52.418;13.398;2023-05-14T01:22:33;19.83;;;10.73;;
26951;SDS011;14507;52.418;13.398;2023-05-14T01:24:59;15.98;;;10.48;;
26951;SDS011;14507;52.418;13.398;2023-05-14T01:27:34;21.55;;;10.82;;
26951;SDS011;14507;52.418;13.398;2023-05-14T01:32:44;16.45;;;9.25;;
26951;SDS011;14507;52.418;13.398;2023-05-14T01:35:12;14.35;;;9.38;;
26951;SDS011;14507;52.418;13.398;2023-05-14T01:37:38;15.95;;;9.85;;
26951;SDS011;14507;52.418;13.398;2023-05-14T01:40:06;14.27;;;9.98;;
26951;SDS011;14507;52.418;13.398;2023-05-14T01:42:33;16.02;;;9.40;;
26951;SDS011;14507;52.418;13.398;2023-05-14T01:44:59;14.43;;;9.77;;
26951;SDS011;14507;52.418;13.398;2023-05-14T01:47:26;14.85;;;9.98;;
26951;SDS011;14507;52.418;13.398;2023-05-14T01:49:51;16.70;;;10.18;;
26951;SDS011;14507;52.418;13.398;2023-05-14T01:52:17;15.85;;;9.52;;
26951;SDS011;14507;52.418;13.398;2023-05-14T01:54:45;18.50;;;9.65;;
26951;SDS011;14507;52.418;13.398;2023-05-14T01:57:13;18.83;;;9.70;;
26951;SDS011;14507;52.418;13.398;2023-05-14T01:59:39;18.00;;;9.05;;
26951;SDS011;14507;52.418;13.398;2023-05-14T02:02:04;16.63;;;9.63;;
26951;SDS011;14507;52.418;13.398;2023-05-14T02:04:30;17.10;;;9.07;;
26951;SDS011;14507;52.418;13.398;2023-05-14T02:06:56;16.75;;;9.50;;
26951;SDS011;14507;52.418;13.398;2023-05-14T02:09:21;14.60;;;8.90;;
26951;SDS011;14507;52.418;13.398;2023-05-14T02:11:47;17.23;;;8.93;;
26951;SDS011;14507;52.418;13.398;2023-05-14T02:14:12;18.90;;;9.48;;
26951;SDS011;14507;52.418;13.398;2023-05-14T02:16:39;17.67;;;9.55;;
26951;SDS011;14507;52.418;13.398;2023-05-14T02:19:05;16.25;;;9.25;;
26951;SDS011;14507;52.418;13.398;2023-05-14T02:21:31;15.15;;;8.95;;
26951;SDS011;14507;52.418;13.398;2023-05-14T02:23:56;13.45;;;9.30;;
26951;SDS011;14507;52.418;13.398;2023-05-14T02:26:22;14.75;;;9.40;;
26951;SDS011;14507;52.418;13.398;2023-05-14T02:28:47;13.80;;;8.63;;
26951;SDS011;14507;52.418;13.398;2023-05-14T02:31:13;15.38;;;9.10;;
26951;SDS011;14507;52.418;13.398;2023-05-14T02:33:39;14.77;;;9.15;;
26951;SDS011;14507;52.418;13.398;2023-05-14T02:36:04;12.32;;;8.70;;
26951;SDS011;14507;52.418;13.398;2023-05-14T02:38:30;12.52;;;8.30;;
26951;SDS011;14507;52.418;13.398;2023-05-14T02:40:56;16.63;;;8.75;;
26951;SDS011;14507;52.418;13.398;2023-05-14T02:43:21;14.02;;;9.00;;
26951;SDS011;14507;52.418;13.398;2023-05-14T02:45:47;13.43;;;8.85;;
26951;SDS011;14507;52.418;13.398;2023-05-14T02:48:13;12.93;;;8.60;;
26951;SDS011;14507;52.418;13.398;2023-05-14T02:50:38;14.02;;;9.60;;
26951;SDS011;14507;52.418;13.398;2023-05-14T02:53:04;13.25;;;8.60;;
26951;SDS011;14507;52.418;13.398;2023-05-14T02:55:29;16.67;;;9.00;;
26951;SDS011;14507;52.418;13.398;2023-05-14T02:57:55;12.05;;;8.43;;
26951;SDS011;14507;52.418;13.398;2023-05-14T03:00:21;20.48;;;9.18;;
26951;SDS011;14507;52.418;13.398;2023-05-14T03:02:46;13.00;;;9.25;;
26951;SDS011;14507;52.418;13.398;2023-05-14T03:05:12;13.05;;;8.55;;
26951;SDS011;14507;52.418;13.398;2023-05-14T03:07:38;15.68;;;8.88;;
26951;SDS011;14507;52.418;13.398;2023-05-14T03:10:04;18.80;;;8.38;;
26951;SDS011;14507;52.418;13.398;2023-05-14T03:12:30;12.75;;;8.88;;
26951;SDS011;14507;52.418;13.398;2023-05-14T03:14:55;13.23;;;8.85;;
26951;SDS011;14507;52.418;13.398;2023-05-14T03:17:21;12.07;;;8.50;;
26951;SDS011;14507;52.418;13.398;2023-05-14T03:19:47;14.30;;;8.50;;
26951;SDS011;14507;52.418;13.398;2023-05-14T03:22:12;19.15;;;9.23;;
26951;SDS011;14507;52.418;13.398;2023-05-14T03:24:38;13.05;;;8.40;;
26951;SDS011;14507;52.418;13.398;2023-05-14T03:27:04;13.43;;;8.90;;
26951;SDS011;14507;52.418;13.398;2023-05-14T03:29:30;15.05;;;8.80;;
26951;SDS011;14507;52.418;13.398;2023-05-14T03:31:56;14.70;;;9.45;;
26951;SDS011;14507;52.418;13.398;2023-05-14T03:34:21;14.38;;;8.77;;
26951;SDS011;14507;52.418;13.398;2023-05-14T03:36:47;14.63;;;9.30;;
26951;SDS011;14507;52.418;13.398;2023-05-14T03:39:13;12.10;;;8.80;;
26951;SDS011;14507;52.418;13.398;2023-05-14T03:41:45;12.85;;;9.00;;
26951;SDS011;14507;52.418;13.398;2023-05-14T03:44:11;13.68;;;8.63;;
26951;SDS011;14507;52.418;13.398;2023-05-14T03:46:37;17.60;;;9.00;;
26951;SDS011;14507;52.418;13.398;2023-05-14T03:49:02;14.32;;;8.73;;
26951;SDS011;14507;52.418;13.398;2023-05-14T03:51:28;16.92;;;8.35;;
26951;SDS011;14507;52.418;13.398;2023-05-14T03:53:54;16.10;;;8.77;;
26951;SDS011;14507;52.418;13.398;2023-05-14T03:56:19;16.13;;;8.90;;
26951;SDS011;14507;52.418;13.398;2023-05-14T03:58:45;12.60;;;8.40;;
26951;SDS011;14507;52.418;13.398;2023-05-14T04:01:11;16.30;;;8.77;;
26951;SDS011;14507;52.418;13.398;2023-05-14T04:03:37;14.35;;;8.52;;
26951;SDS011;14507;52.418;13.398;2023-05-14T04:06:02;12.65;;;8.32;;
26951;SDS011;14507;52.418;13.398;2023-05-14T04:08:28;12.80;;;8.05;;
26951;SDS011;14507;52.418;13.398;2023-05-14T04:10:54;13.95;;;8.77;;
26951;SDS011;14507;52.418;13.398;2023-05-14T04:13:19;18.35;;;8.70;;
26951;SDS011;14507;52.418;13.398;2023-05-14T04:15:45;15.57;;;8.93;;
26951;SDS011;14507;52.418;13.398;2023-05-14T04:18:11;19.48;;;8.40;;
26951;SDS011;14507;52.418;13.398;2023-05-14T04:20:36;13.80;;;8.93;;
26951;SDS011;14507;52.418;13.398;2023-05-14T04:23:02;14.27;;;8.40;;
26951;SDS011;14507;52.418;13.398;2023-05-14T04:25:28;11.93;;;8.20;;
26951;SDS011;14507;52.418;13.398;2023-05-14T04:27:54;16.75;;;9.30;;
26951;SDS011;14507;52.418;13.398;2023-05-14T04:30:20;16.85;;;8.93;;
26951;SDS011;14507;52.418;13.398;2023-05-14T04:32:45;14.32;;;9.00;;
26951;SDS011;14507;52.418;13.398;2023-05-14T04:35:11;13.57;;;8.50;;
26951;SDS011;14507;52.418;13.398;2023-05-14T04:37:37;17.10;;;8.52;;
26951;SDS011;14507;52.418;13.398;2023-05-14T04:40:07;14.18;;;8.40;;
26951;SDS011;14507;52.418;13.398;2023-05-14T04:42:35;15.10;;;8.55;;
26951;SDS011;14507;52.418;13.398;2023-05-14T04:45:01;13.68;;;8.23;;
26951;SDS011;14507;52.418;13.398;2023-05-14T04:47:29;17.42;;;8.65;;
26951;SDS011;14507;52.418;13.398;2023-05-14T04:49:55;12.38;;;8.00;;
26951;SDS011;14507;52.418;13.398;2023-05-14T04:52:21;10.88;;;8.07;;
26951;SDS011;14507;52.418;13.398;2023-05-14T04:54:48;16.02;;;7.60;;
26951;SDS011;14507;52.418;13.398;2023-05-14T04:57:13;11.40;;;7.70;;
26951;SDS011;14507;52.418;13.398;2023-05-14T04:59:39;14.05;;;7.80;;
26951;SDS011;14507;52.418;13.398;2023-05-14T05:02:05;14.13;;;7.05;;
26951;SDS011;14507;52.418;13.398;2023-05-14T05:04:30;14.48;;;7.38;;
26951;SDS011;14507;52.418;13.398;2023-05-14T05:06:56;15.90;;;7.68;;
26951;SDS011;14507;52.418;13.398;2023-05-14T05:09:21;11.82;;;6.72;;
26951;SDS011;14507;52.418;13.398;2023-05-14T05:11:47;13.75;;;7.35;;
26951;SDS011;14507;52.418;13.398;2023-05-14T05:14:13;18.25;;;7.75;;
26951;SDS011;14507;52.418;13.398;2023-05-14T05:16:38;11.18;;;6.40;;
26951;SDS011;14507;52.418;13.398;2023-05-14T05:19:04;10.55;;;7.10;;
26951;SDS011;14507;52.418;13.398;2023-05-14T05:21:30;12.63;;;7.25;;
26951;SDS011;14507;52.418;13.398;2023-05-14T05:23:55;13.63;;;7.30;;
26951;SDS011;14507;52.418;13.398;2023-05-14T05:26:21;13.43;;;7.30;;
26951;SDS011;14507;52.418;13.398;2023-05-14T05:28:47;11.90;;;7.13;;
26951;SDS011;14507;52.418;13.398;2023-05-14T05:31:12;13.60;;;8.23;;
26951;SDS011;14507;52.418;13.398;2023-05-14T05:33:38;14.52;;;7.38;;
26951;SDS011;14507;52.418;13.398;2023-05-14T05:36:04;15.63;;;7.57;;
26951;SDS011;14507;52.418;13.398;2023-05-14T05:38:30;17.35;;;7.82;;
26951;SDS011;14507;52.418;13.398;2023-05-14T05:40:55;11.48;;;7.60;;
26951;SDS011;14507;52.418;13.398;2023-05-14T05:43:21;11.98;;;7.50;;
26951;SDS011;14507;52.418;13.398;2023-05-14T05:45:47;13.57;;;7.50;;
26951;SDS011;14507;52.418;13.398;2023-05-14T05:48:12;14.77;;;8.45;;
26951;SDS011;14507;52.418;13.398;2023-05-14T05:50:38;11.38;;;7.55;;
26951;SDS011;14507;52.418;13.398;2023-05-14T05:53:03;13.05;;;7.57;;
26951;SDS011;14507;52.418;13.398;2023-05-14T05:55:29;13.57;;;7.32;;
26951;SDS011;14507;52.418;13.398;2023-05-14T05:57:55;14.00;;;7.63;;
26951;SDS011;14507;52.418;13.398;2023-05-14T06:00:20;13.60;;;6.82;;
26951;SDS011;14507;52.418;13.398;2023-05-14T06:02:46;12.63;;;7.30;;
26951;SDS011;14507;52.418;13.398;2023-05-14T06:05:13;15.20;;;7.47;;
26951;SDS011;14507;52.418;13.398;2023-05-14T06:07:38;12.05;;;6.63;;
26951;SDS011;14507;52.418;13.398;2023-05-14T06:10:04;11.88;;;6.63;;
26951;SDS011;14507;52.418;13.398;2023-05-14T06:12:30;12.88;;;6.63;;
26951;SDS011;14507;52.418;13.398;2023-05-14T06:14:56;12.13;;;6.75;;
26951;SDS011;14507;52.418;13.398;2023-05-14T06:17:22;15.82;;;6.68;;
26951;SDS011;14507;52.418;13.398;2023-05-14T06:19:48;11.98;;;6.85;;
26951;SDS011;14507;52.418;13.398;2023-05-14T06:22:15;16.10;;;6.65;;
26951;SDS011;14507;52.418;13.398;2023-05-14T06:24:40;12.38;;;6.20;;
26951;SDS011;14507;52.418;13.398;2023-05-14T06:27:06;10.45;;;6.47;;
26951;SDS011;14507;52.418;13.398;2023-05-14T06:29:32;14.60;;;6.57;;
26951;SDS011;14507;52.418;13.398;2023-05-14T06:32:00;15.40;;;6.07;;
26951;SDS011;14507;52.418;13.398;2023-05-14T06:34:27;11.38;;;6.15;;
26951;SDS011;14507;52.418;13.398;2023-05-14T06:36:53;11.98;;;6.20;;
26951;SDS011;14507;52.418;13.398;2023-05-14T06:39:19;13.73;;;5.55;;
26951;SDS011;14507;52.418;13.398;2023-05-14T06:41:45;13.77;;;6.43;;
26951;SDS011;14507;52.418;13.398;2023-05-14T06:44:10;10.30;;;5.68;;
26951;SDS011;14507;52.418;13.398;2023-05-14T06:46:36;10.93;;;5.47;;
26951;SDS011;14507;52.418;13.398;2023-05-14T06:49:02;11.50;;;5.20;;
26951;SDS011;14507;52.418;13.398;2023-05-14T06:51:27;12.57;;;6.10;;
26951;SDS011;14507;52.418;13.398;2023-05-14T06:53:54;15.07;;;5.80;;
26951;SDS011;14507;52.418;13.398;2023-05-14T06:56:20;15.60;;;5.45;;
26951;SDS011;14507;52.418;13.398;2023-05-14T06:58:46;12.05;;;5.15;;
26951;SDS011;14507;52.418;13.398;2023-05-14T07:01:12;16.45;;;6.03;;
26951;SDS011;14507;52.418;13.398;2023-05-14T07:03:38;9.80;;;5.10;;
26951;SDS011;14507;52.418;13.398;2023-05-14T07:06:03;10.60;;;5.50;;
26951;SDS011;14507;52.418;13.398;2023-05-14T07:08:30;11.75;;;5.88;;
26951;SDS011;14507;52.418;13.398;2023-05-14T07:10:56;13.07;;;5.13;;
26951;SDS011;14507;52.418;13.398;2023-05-14T07:13:22;11.57;;;4.97;;
26951;SDS011;14507;52.418;13.398;2023-05-14T07:15:48;9.77;;;5.28;;
26951;SDS011;14507;52.418;13.398;2023-05-14T07:18:13;11.40;;;4.95;;
26951;SDS011;14507;52.418;13.398;2023-05-14T07:20:39;10.65;;;5.43;;
26951;SDS011;14507;52.418;13.398;2023-05-14T07:23:05;13.15;;;5.47;;
26951;SDS011;14507;52.418;13.398;2023-05-14T07:25:31;11.25;;;5.22;;
26951;SDS011;14507;52.418;13.398;2023-05-14T07:27:56;10.15;;;4.90;;
26951;SDS011;14507;52.418;13.398;2023-05-14T07:30:22;9.20;;;4.65;;
26951;SDS011;14507;52.418;13.398;2023-05-14T07:32:48;10.73;;;4.40;;
26951;SDS011;14507;52.418;13.398;2023-05-14T07:35:13;8.63;;;4.45;;
26951;SDS011;14507;52.418;13.398;2023-05-14T07:37:42;11.25;;;4.70;;
26951;SDS011;14507;52.418;13.398;2023-05-14T07:40:08;9.25;;;4.68;;
26951;SDS011;14507;52.418;13.398;2023-05-14T07:42:34;8.57;;;4.70;;
26951;SDS011;14507;52.418;13.398;2023-05-14T07:44:59;7.30;;;4.65;;
26951;SDS011;14507;52.418;13.398;2023-05-14T07:47:25;10.73;;;4.78;;
26951;SDS011;14507;52.418;13.398;2023-05-14T07:49:54;11.65;;;4.22;;
26951;SDS011;14507;52.418;13.398;2023-05-14T07:52:20;6.53;;;4.30;;
26951;SDS011;14507;52.418;13.398;2023-05-14T07:54:46;9.70;;;4.65;;
26951;SDS011;14507;52.418;13.398;2023-05-14T07:57:12;8.02;;;4.47;;
26951;SDS011;14507;52.418;13.398;2023-05-14T07:59:38;6.38;;;3.40;;
26951;SDS011;14507;52.418;13.398;2023-05-14T08:02:03;9.40;;;4.10;;
26951;SDS011;14507;52.418;13.398;2023-05-14T08:04:29;11.50;;;4.45;;
26951;SDS011;14507;52.418;13.398;2023-05-14T08:06:54;7.70;;;3.92;;
26951;SDS011;14507;52.418;13.398;2023-05-14T08:09:22;7.73;;;3.83;;
26951;SDS011;14507;52.418;13.398;2023-05-14T08:11:48;9.60;;;3.80;;
26951;SDS011;14507;52.418;13.398;2023-05-14T08:14:13;16.02;;;4.43;;
26951;SDS011;14507;52.418;13.398;2023-05-14T08:16:39;9.60;;;4.10;;
26951;SDS011;14507;52.418;13.398;2023-05-14T08:19:05;10.88;;;3.92;;
26951;SDS011;14507;52.418;13.398;2023-05-14T08:21:30;10.88;;;3.63;;
26951;SDS011;14507;52.418;13.398;2023-05-14T08:23:56;9.45;;;3.65;;
26951;SDS011;14507;52.418;13.398;2023-05-14T08:26:22;11.48;;;3.65;;
26951;SDS011;14507;52.418;13.398;2023-05-14T08:28:48;9.98;;;4.25;;
26951;SDS011;14507;52.418;13.398;2023-05-14T08:31:13;8.65;;;3.95;;
26951;SDS011;14507;52.418;13.398;2023-05-14T08:33:39;6.32;;;3.35;;
26951;SDS011;14507;52.418;13.398;2023-05-14T08:36:05;11.25;;;3.65;;
26951;SDS011;14507;52.418;13.398;2023-05-14T08:38:31;7.78;;;3.60;;
26951;SDS011;14507;52.418;13.398;2023-05-14T08:40:58;10.48;;;3.65;;
26951;SDS011;14507;52.418;13.398;2023-05-14T08:43:35;5.78;;;3.20;;
26951;SDS011;14507;52.418;13.398;2023-05-14T08:46:08;6.38;;;3.40;;
26951;SDS011;14507;52.418;13.398;2023-05-14T08:48:37;8.48;;;3.85;;
26951;SDS011;14507;52.418;13.398;2023-05-14T08:51:06;5.22;;;3.17;;
26951;SDS011;14507;52.418;13.398;2023-05-14T08:53:33;8.25;;;3.58;;
26951;SDS011;14507;52.418;13.398;2023-05-14T08:56:00;8.05;;;3.78;;
26951;SDS011;14507;52.418;13.398;2023-05-14T09:00:53;10.55;;;3.58;;
26951;SDS011;14507;52.418;13.398;2023-05-14T09:03:19;9.60;;;3.15;;
26951;SDS011;14507;52.418;13.398;2023-05-14T09:05:46;8.40;;;3.20;;
26951;SDS011;14507;52.418;13.398;2023-05-14T09:08:13;9.52;;;3.50;;
26951;SDS011;14507;52.418;13.398;2023-05-14T09:10:38;6.03;;;3.30;;
26951;SDS011;14507;52.418;13.398;2023-05-14T09:13:04;11.55;;;3.28;;
26951;SDS011;14507;52.418;13.398;2023-05-14T09:15:31;7.13;;;3.00;;
26951;SDS011;14507;52.418;13.398;2023-05-14T09:17:58;5.88;;;3.22;;
26951;SDS011;14507;52.418;13.398;2023-05-14T09:20:24;8.02;;;3.17;;
26951;SDS011;14507;52.418;13.398;2023-05-14T09:22:53;5.13;;;2.85;;
26951;SDS011;14507;52.418;13.398;2023-05-14T09:25:18;6.18;;;3.08;;
26951;SDS011;14507;52.418;13.398;2023-05-14T09:27:45;6.70;;;3.10;;
26951;SDS011;14507;52.418;13.398;2023-05-14T09:30:14;7.05;;;2.95;;
26951;SDS011;14507;52.418;13.398;2023-05-14T09:32:42;6.90;;;3.15;;
26951;SDS011;14507;52.418;13.398;2023-05-14T09:35:16;4.47;;;2.70;;
26951;SDS011;14507;52.418;13.398;2023-05-14T09:37:43;7.45;;;2.80;;
26951;SDS011;14507;52.418;13.398;2023-05-14T09:42:37;9.23;;;2.83;;
26951;SDS011;14507;52.418;13.398;2023-05-14T09:45:03;9.70;;;3.00;;
26951;SDS011;14507;52.418;13.398;2023-05-14T09:47:29;6.30;;;2.70;;
26951;SDS011;14507;52.418;13.398;2023-05-14T09:49:55;6.32;;;3.17;;
26951;SDS011;14507;52.418;13.398;2023-05-14T09:52:25;6.38;;;3.30;;
26951;SDS011;14507;52.418;13.398;2023-05-14T09:54:51;8.65;;;2.97;;
26951;SDS011;14507;52.418;13.398;2023-05-14T09:57:17;5.50;;;2.80;;
26951;SDS011;14507;52.418;13.398;2023-05-14T09:59:43;7.47;;;3.15;;
26951;SDS011;14507;52.418;13.398;2023-05-14T10:02:20;7.03;;;2.65;;
26951;SDS011;14507;52.418;13.398;2023-05-14T10:04:47;6.18;;;2.75;;
26951;SDS011;14507;52.418;13.398;2023-05-14T10:07:18;8.32;;;3.10;;
26951;SDS011;14507;52.418;13.398;2023-05-14T10:09:47;9.25;;;3.00;;
26951;SDS011;14507;52.418;13.398;2023-05-14T10:12:17;9.07;;;2.80;;
26951;SDS011;14507;52.418;13.398;2023-05-14T10:14:47;5.72;;;2.85;;
26951;SDS011;14507;52.418;13.398;2023-05-14T10:17:17;9.63;;;3.13;;
26951;SDS011;14507;52.418;13.398;2023-05-14T10:19:46;7.88;;;2.78;;
26951;SDS011;14507;52.418;13.398;2023-05-14T10:22:17;10.63;;;3.25;;
26951;SDS011;14507;52.418;13.398;2023-05-14T10:24:47;7.45;;;3.15;;
26951;SDS011;14507;52.418;13.398;2023-05-14T10:27:16;7.38;;;3.08;;
26951;SDS011;14507;52.418;13.398;2023-05-14T10:29:54;7.13;;;3.05;;
26951;SDS011;14507;52.418;13.398;2023-05-14T10:32:21;8.13;;;3.00;;
26951;SDS011;14507;52.418;13.398;2023-05-14T10:34:49;6.22;;;3.30;;
26951;SDS011;14507;52.418;13.398;2023-05-14T10:37:17;8.52;;;3.28;;
26951;SDS011;14507;52.418;13.398;2023-05-14T10:39:49;9.30;;;3.13;;
26951;SDS011;14507;52.418;13.398;2023-05-14T10:42:24;8.27;;;2.85;;
26951;SDS011;14507;52.418;13.398;2023-05-14T10:45:00;8.77;;;3.00;;
26951;SDS011;14507;52.418;13.398;2023-05-14T10:47:31;6.70;;;3.00;;
26951;SDS011;14507;52.418;13.398;2023-05-14T10:49:58;5.70;;;3.00;;
26951;SDS011;14507;52.418;13.398;2023-05-14T10:52:27;5.80;;;3.17;;
26951;SDS011;14507;52.418;13.398;2023-05-14T10:54:54;9.77;;;3.47;;
26951;SDS011;14507;52.418;13.398;2023-05-14T10:57:23;8.60;;;3.40;;
26951;SDS011;14507;52.418;13.398;2023-05-14T10:59:54;6.75;;;3.45;;
26951;SDS011;14507;52.418;13.398;2023-05-14T11:02:24;6.78;;;3.30;;
26951;SDS011;14507;52.418;13.398;2023-05-14T11:04:55;9.13;;;3.20;;
26951;SDS011;14507;52.418;13.398;2023-05-14T11:07:27;5.82;;;3.05;;
26951;SDS011;14507;52.418;13.398;2023-05-14T11:10:04;6.43;;;3.13;;
26951;SDS011;14507;52.418;13.398;2023-05-14T11:12:36;7.82;;;2.90;;
26951;SDS011;14507;52.418;13.398;2023-05-14T11:15:05;7.22;;;3.55;;
26951;SDS011;14507;52.418;13.398;2023-05-14T11:17:34;9.68;;;2.90;;
26951;SDS011;14507;52.418;13.398;2023-05-14T11:20:00;6.38;;;2.90;;
26951;SDS011;14507;52.418;13.398;2023-05-14T11:22:26;8.05;;;3.30;;
26951;SDS011;14507;52.418;13.398;2023-05-14T11:24:52;8.25;;;3.22;;
26951;SDS011;14507;52.418;13.398;2023-05-14T11:27:19;7.97;;;3.20;;
26951;SDS011;14507;52.418;13.398;2023-05-14T11:29:46;7.43;;;3.13;;
26951;SDS011;14507;52.418;13.398;2023-05-14T11:32:13;5.60;;;3.17;;
26951;SDS011;14507;52.418;13.398;2023-05-14T11:34:40;7.57;;;3.65;;
26951;SDS011;14507;52.418;13.398;2023-05-14T11:37:08;10.43;;;3.78;;
26951;SDS011;14507;52.418;13.398;2023-05-14T11:39:35;9.30;;;3.90;;
26951;SDS011;14507;52.418;13.398;2023-05-14T11:42:08;7.47;;;3.47;;
26951;SDS011;14507;52.418;13.398;2023-05-14T11:44:40;12.80;;;3.75;;
26951;SDS011;14507;52.418;13.398;2023-05-14T11:47:08;5.18;;;3.03;;
26951;SDS011;14507;52.418;13.398;2023-05-14T11:49:35;5.75;;;2.78;;
26951;SDS011;14507;52.418;13.398;2023-05-14T11:52:03;6.28;;;2.88;;
26951;SDS011;14507;52.418;13.398;2023-05-14T11:54:30;7.53;;;3.00;;
26951;SDS011;14507;52.418;13.398;2023-05-14T11:56:58;10.85;;;3.35;;
26951;SDS011;14507;52.418;13.398;2023-05-14T11:59:27;5.40;;;3.08;;
26951;SDS011;14507;52.418;13.398;2023-05-14T12:01:58;5.85;;;3.42;;
26951;SDS011;14507;52.418;13.398;2023-05-14T12:04:24;7.40;;;3.72;;
26951;SDS011;14507;52.418;13.398;2023-05-14T12:06:50;5.30;;;2.90;;
26951;SDS011;14507;52.418;13.398;2023-05-14T12:09:17;7.85;;;3.20;;
26951;SDS011;14507;52.418;13.398;2023-05-14T12:11:44;7.47;;;3.40;;
26951;SDS011;14507;52.418;13.398;2023-05-14T12:14:13;7.60;;;3.17;;
26951;SDS011;14507;52.418;13.398;2023-05-14T12:16:40;6.93;;;3.30;;
26951;SDS011;14507;52.418;13.398;2023-05-14T12:19:07;7.15;;;3.63;;
26951;SDS011;14507;52.418;13.398;2023-05-14T12:21:34;7.05;;;3.53;;
26951;SDS011;14507;52.418;13.398;2023-05-14T12:24:00;7.60;;;3.42;;
26951;SDS011;14507;52.418;13.398;2023-05-14T12:26:26;9.10;;;3.67;;
26951;SDS011;14507;52.418;13.398;2023-05-14T12:28:56;5.07;;;3.00;;
26951;SDS011;14507;52.418;13.398;2023-05-14T12:31:28;5.47;;;2.95;;
26951;SDS011;14507;52.418;13.398;2023-05-14T12:34:00;8.07;;;3.47;;
26951;SDS011;14507;52.418;13.398;2023-05-14T12:36:29;8.38;;;3.33;;
26951;SDS011;14507;52.418;13.398;2023-05-14T12:39:00;7.38;;;3.00;;
26951;SDS011;14507;52.418;13.398;2023-05-14T12:41:27;7.57;;;2.80;;
26951;SDS011;14507;52.418;13.398;2023-05-14T12:43:57;7.47;;;3.33;;
26951;SDS011;14507;52.418;13.398;2023-05-14T12:46:24;6.57;;;3.33;;
26951;SDS011;14507;52.418;13.398;2023-05-14T12:48:51;11.67;;;2.83;;
26951;SDS011;14507;52.418;13.398;2023-05-14T12:51:20;7.40;;;2.92;;
26951;SDS011;14507;52.418;13.398;2023-05-14T12:53:45;5.55;;;2.80;;
26951;SDS011;14507;52.418;13.398;2023-05-14T12:56:11;7.18;;;3.10;;
26951;SDS011;14507;52.418;13.398;2023-05-14T12:58:38;10.38;;;3.58;;
26951;SDS011;14507;52.418;13.398;2023-05-14T13:01:04;5.82;;;3.40;;
26951;SDS011;14507;52.418;13.398;2023-05-14T13:03:30;6.78;;;3.15;;
26951;SDS011;14507;52.418;13.398;2023-05-14T13:05:56;6.05;;;2.90;;
26951;SDS011;14507;52.418;13.398;2023-05-14T13:08:21;5.95;;;2.90;;
26951;SDS011;14507;52.418;13.398;2023-05-14T13:10:50;8.43;;;3.05;;
26951;SDS011;14507;52.418;13.398;2023-05-14T13:13:16;5.18;;;2.90;;
26951;SDS011;14507;52.418;13.398;2023-05-14T13:15:41;6.00;;;2.78;;
26951;SDS011;14507;52.418;13.398;2023-05-14T13:18:08;7.95;;;3.30;;
26951;SDS011;14507;52.418;13.398;2023-05-14T13:20:33;9.05;;;3.90;;
26951;SDS011;14507;52.418;13.398;2023-05-14T13:22:59;5.57;;;2.83;;
26951;SDS011;14507;52.418;13.398;2023-05-14T13:25:24;6.43;;;3.00;;
26951;SDS011;14507;52.418;13.398;2023-05-14T13:27:50;6.32;;;3.50;;
26951;SDS011;14507;52.418;13.398;2023-05-14T13:30:16;5.43;;;2.95;;
26951;SDS011;14507;52.418;13.398;2023-05-14T13:32:42;7.95;;;3.00;;
26951;SDS011;14507;52.418;13.398;2023-05-14T13:35:08;9.30;;;3.30;;
26951;SDS011;14507;52.418;13.398;2023-05-14T13:37:34;5.78;;;3.08;;
26951;SDS011;14507;52.418;13.398;2023-05-14T13:40:00;5.63;;;2.95;;
26951;SDS011;14507;52.418;13.398;2023-05-14T13:42:26;7.55;;;3.88;;
26951;SDS011;14507;52.418;13.398;2023-05-14T13:44:51;10.13;;;3.40;;
26951;SDS011;14507;52.418;13.398;2023-05-14T13:47:17;9.43;;;3.78;;
26951;SDS011;14507;52.418;13.398;2023-05-14T13:49:43;7.05;;;3.58;;
26951;SDS011;14507;52.418;13.398;2023-05-14T13:52:08;5.55;;;3.30;;
26951;SDS011;14507;52.418;13.398;2023-05-14T13:54:34;8.77;;;3.50;;
26951;SDS011;14507;52.418;13.398;2023-05-14T13:57:00;10.63;;;3.95;;
26951;SDS011;14507;52.418;13.398;2023-05-14T13:59:25;8.15;;;2.80;;
26951;SDS011;14507;52.418;13.398;2023-05-14T14:01:51;11.73;;;3.60;;
26951;SDS011;14507;52.418;13.398;2023-05-14T14:04:17;6.10;;;2.65;;
26951;SDS011;14507;52.418;13.398;2023-05-14T14:06:43;8.05;;;3.05;;
26951;SDS011;14507;52.418;13.398;2023-05-14T14:09:09;9.02;;;3.08;;
26951;SDS011;14507;52.418;13.398;2023-05-14T14:11:37;5.90;;;3.33;;
26951;SDS011;14507;52.418;13.398;2023-05-14T14:14:03;6.18;;;2.97;;
26951;SDS011;14507;52.418;13.398;2023-05-14T14:16:28;6.25;;;2.97;;
26951;SDS011;14507;52.418;13.398;2023-05-14T14:18:54;7.75;;;3.28;;
26951;SDS011;14507;52.418;13.398;2023-05-14T14:21:21;7.72;;;2.95;;
26951;SDS011;14507;52.418;13.398;2023-05-14T14:23:47;7.45;;;2.85;;
26951;SDS011;14507;52.418;13.398;2023-05-14T14:26:12;6.25;;;3.13;;
26951;SDS011;14507;52.418;13.398;2023-05-14T14:28:38;7.70;;;2.70;;
26951;SDS011;14507;52.418;13.398;2023-05-14T14:31:04;8.43;;;3.30;;
26951;SDS011;14507;52.418;13.398;2023-05-14T14:33:30;7.22;;;3.00;;